sensor_id;sensor_type;location;lat;lon;timestamp;P1;durP1;ratioP1;P2;durP2;ratioP2
70505;SDS011;58032;49.820;6.274;2023-06-24T00:00:02;6.32;;;3.42;;
70505;SDS011;58032;49.820;6.274;2023-06-24T00:02:34;6.32;;;3.65;;
70505;SDS011;58032;49.820;6.274;2023-06-24T00:05:03;10.63;;;4.17;;
70505;SDS011;58032;49.820;6.274;2023-06-24T00:07:31;7.10;;;4.30;;
70505;SDS011;58032;49.820;6.274;2023-06-24T00:09:58;8.50;;;4.45;;
70505;SDS011;58032;49.820;6.274;2023-06-24T00:12:25;7.72;;;4.30;;
70505;SDS011;58032;49.820;6.274;2023-06-24T00:14:53;6.45;;;3.83;;
70505;SDS011;58032;49.820;6.274;2023-06-24T00:17:20;6.60;;;3.87;;
70505;SDS011;58032;49.820;6.274;2023-06-24T00:19:46;6.75;;;4.32;;
70505;SDS011;58032;49.820;6.274;2023-06-24T00:22:13;5.88;;;3.75;;
70505;SDS011;58032;49.820;6.274;2023-06-24T00:24:41;6.80;;;4.10;;
70505;SDS011;58032;49.820;6.274;2023-06-24T00:27:09;6.88;;;3.15;;
70505;SDS011;58032;49.820;6.274;2023-06-24T00:29:36;7.77;;;3.03;;
70505;SDS011;58032;49.820;6.274;2023-06-24T00:32:03;8.02;;;2.50;;
70505;SDS011;58032;49.820;6.274;2023-06-24T00:34:30;5.15;;;2.58;;
70505;SDS011;58032;49.820;6.274;2023-06-24T00:36:57;4.63;;;2.47;;
70505;SDS011;58032;49.820;6.274;2023-06-24T00:39:26;6.32;;;2.72;;
70505;SDS011;58032;49.820;6.274;2023-06-24T00:41:53;6.83;;;3.00;;
70505;SDS011;58032;49.820;6.274;2023-06-24T00:44:21;5.30;;;2.67;;
70505;SDS011;58032;49.820;6.274;2023-06-24T00:46:47;6.38;;;2.90;;
70505;SDS011;58032;49.820;6.274;2023-06-24T00:49:16;7.85;;;3.00;;
70505;SDS011;58032;49.820;6.274;2023-06-24T00:51:42;8.45;;;3.67;;
70505;SDS011;58032;49.820;6.274;2023-06-24T00:54:14;6.20;;;3.63;;
70505;SDS011;58032;49.820;6.274;2023-06-24T00:56:41;9.45;;;4.03;;
70505;SDS011;58032;49.820;6.274;2023-06-24T00:59:10;6.78;;;4.25;;
70505;SDS011;58032;49.820;6.274;2023-06-24T01:01:40;6.90;;;4.18;;
70505;SDS011;58032;49.820;6.274;2023-06-24T01:04:07;7.32;;;3.70;;
70505;SDS011;58032;49.820;6.274;2023-06-24T01:06:35;7.03;;;4.07;;
70505;SDS011;58032;49.820;6.274;2023-06-24T01:09:02;7.43;;;4.05;;
70505;SDS011;58032;49.820;6.274;2023-06-24T01:11:31;7.10;;;4.03;;
70505;SDS011;58032;49.820;6.274;2023-06-24T01:13:59;6.68;;;4.05;;
70505;SDS011;58032;49.820;6.274;2023-06-24T01:16:29;7.57;;;4.55;;
70505;SDS011;58032;49.820;6.274;2023-06-24T01:22:28;6.93;;;3.60;;
70505;SDS011;58032;49.820;6.274;2023-06-24T01:33:38;5.70;;;3.00;;
70505;SDS011;58032;49.820;6.274;2023-06-24T01:36:11;6.57;;;3.05;;
70505;SDS011;58032;49.820;6.274;2023-06-24T01:38:46;6.18;;;3.47;;
70505;SDS011;58032;49.820;6.274;2023-06-24T01:41:22;7.72;;;3.78;;
70505;SDS011;58032;49.820;6.274;2023-06-24T01:43:53;5.82;;;3.58;;
70505;SDS011;58032;49.820;6.274;2023-06-24T01:46:22;6.67;;;3.40;;
70505;SDS011;58032;49.820;6.274;2023-06-24T01:48:52;6.72;;;3.70;;
70505;SDS011;58032;49.820;6.274;2023-06-24T01:51:24;6.22;;;3.95;;
70505;SDS011;58032;49.820;6.274;2023-06-24T01:53:57;6.22;;;3.83;;
70505;SDS011;58032;49.820;6.274;2023-06-24T01:56:27;6.90;;;3.78;;
70505;SDS011;58032;49.820;6.274;2023-06-24T01:58:56;6.80;;;3.60;;
70505;SDS011;58032;49.820;6.274;2023-06-24T02:01:27;6.15;;;3.85;;
70505;SDS011;58032;49.820;6.274;2023-06-24T02:03:55;6.72;;;4.13;;
70505;SDS011;58032;49.820;6.274;2023-06-24T02:06:24;6.90;;;4.30;;
70505;SDS011;58032;49.820;6.274;2023-06-24T02:08:53;7.18;;;4.65;;
70505;SDS011;58032;49.820;6.274;2023-06-24T02:11:22;7.03;;;4.03;;
70505;SDS011;58032;49.820;6.274;2023-06-24T02:13:51;7.78;;;4.43;;
70505;SDS011;58032;49.820;6.274;2023-06-24T02:16:20;7.22;;;4.38;;
70505;SDS011;58032;49.820;6.274;2023-06-24T02:18:48;6.30;;;3.70;;
70505;SDS011;58032;49.820;6.274;2023-06-24T02:21:17;6.50;;;3.55;;
70505;SDS011;58032;49.820;6.274;2023-06-24T02:23:46;7.10;;;3.27;;
70505;SDS011;58032;49.820;6.274;2023-06-24T02:26:15;6.15;;;3.20;;
70505;SDS011;58032;49.820;6.274;2023-06-24T02:28:44;9.07;;;3.90;;
70505;SDS011;58032;49.820;6.274;2023-06-24T02:31:13;7.15;;;4.28;;
70505;SDS011;58032;49.820;6.274;2023-06-24T02:33:41;7.78;;;4.45;;
70505;SDS011;58032;49.820;6.274;2023-06-24T02:36:08;6.60;;;3.77;;
70505;SDS011;58032;49.820;6.274;2023-06-24T02:38:37;6.57;;;4.10;;
70505;SDS011;58032;49.820;6.274;2023-06-24T02:41:04;8.05;;;4.18;;
70505;SDS011;58032;49.820;6.274;2023-06-24T02:43:32;7.00;;;4.28;;
70505;SDS011;58032;49.820;6.274;2023-06-24T02:46:00;7.47;;;4.15;;
70505;SDS011;58032;49.820;6.274;2023-06-24T02:48:29;6.23;;;3.87;;
70505;SDS011;58032;49.820;6.274;2023-06-24T02:50:58;7.55;;;4.22;;
70505;SDS011;58032;49.820;6.274;2023-06-24T02:53:26;7.22;;;4.13;;
70505;SDS011;58032;49.820;6.274;2023-06-24T02:55:55;7.78;;;4.40;;
70505;SDS011;58032;49.820;6.274;2023-06-24T02:58:23;6.50;;;4.03;;
70505;SDS011;58032;49.820;6.274;2023-06-24T03:01:04;7.03;;;4.30;;
70505;SDS011;58032;49.820;6.274;2023-06-24T03:03:47;7.85;;;4.18;;
70505;SDS011;58032;49.820;6.274;2023-06-24T03:06:16;7.50;;;4.70;;
70505;SDS011;58032;49.820;6.274;2023-06-24T03:08:46;8.55;;;4.60;;
70505;SDS011;58032;49.820;6.274;2023-06-24T03:11:15;8.90;;;5.30;;
70505;SDS011;58032;49.820;6.274;2023-06-24T03:13:43;7.23;;;4.60;;
70505;SDS011;58032;49.820;6.274;2023-06-24T03:16:22;7.38;;;4.60;;
70505;SDS011;58032;49.820;6.274;2023-06-24T03:19:11;8.00;;;4.13;;
70505;SDS011;58032;49.820;6.274;2023-06-24T03:21:38;7.95;;;4.05;;
70505;SDS011;58032;49.820;6.274;2023-06-24T03:24:14;6.25;;;3.78;;
70505;SDS011;58032;49.820;6.274;2023-06-24T03:26:43;6.40;;;3.60;;
70505;SDS011;58032;49.820;6.274;2023-06-24T03:29:12;6.93;;;3.95;;
70505;SDS011;58032;49.820;6.274;2023-06-24T03:31:47;8.82;;;4.43;;
70505;SDS011;58032;49.820;6.274;2023-06-24T03:34:19;6.95;;;4.07;;
70505;SDS011;58032;49.820;6.274;2023-06-24T03:36:46;7.30;;;4.72;;
70505;SDS011;58032;49.820;6.274;2023-06-24T03:39:14;7.43;;;4.30;;
70505;SDS011;58032;49.820;6.274;2023-06-24T03:41:42;7.38;;;4.50;;
70505;SDS011;58032;49.820;6.274;2023-06-24T03:44:10;7.43;;;3.97;;
70505;SDS011;58032;49.820;6.274;2023-06-24T03:46:37;6.70;;;3.60;;
70505;SDS011;58032;49.820;6.274;2023-06-24T03:49:04;7.85;;;4.22;;
70505;SDS011;58032;49.820;6.274;2023-06-24T03:51:31;6.93;;;4.50;;
70505;SDS011;58032;49.820;6.274;2023-06-24T03:53:59;6.88;;;4.35;;
70505;SDS011;58032;49.820;6.274;2023-06-24T03:56:26;7.30;;;5.00;;
70505;SDS011;58032;49.820;6.274;2023-06-24T03:58:53;7.00;;;4.15;;
70505;SDS011;58032;49.820;6.274;2023-06-24T04:01:20;6.20;;;3.80;;
70505;SDS011;58032;49.820;6.274;2023-06-24T04:03:47;8.57;;;4.20;;
70505;SDS011;58032;49.820;6.274;2023-06-24T04:06:14;8.23;;;3.83;;
70505;SDS011;58032;49.820;6.274;2023-06-24T04:08:41;12.73;;;7.00;;
70505;SDS011;58032;49.820;6.274;2023-06-24T04:11:10;10.05;;;5.57;;
70505;SDS011;58032;49.820;6.274;2023-06-24T04:13:38;8.60;;;4.93;;
70505;SDS011;58032;49.820;6.274;2023-06-24T04:16:05;6.60;;;4.00;;
70505;SDS011;58032;49.820;6.274;2023-06-24T04:18:33;5.72;;;3.92;;
70505;SDS011;58032;49.820;6.274;2023-06-24T04:21:00;8.30;;;4.30;;
70505;SDS011;58032;49.820;6.274;2023-06-24T04:23:27;6.47;;;4.32;;
70505;SDS011;58032;49.820;6.274;2023-06-24T04:25:54;7.45;;;4.63;;
70505;SDS011;58032;49.820;6.274;2023-06-24T04:28:21;7.47;;;4.17;;
70505;SDS011;58032;49.820;6.274;2023-06-24T04:30:49;6.32;;;3.88;;
70505;SDS011;58032;49.820;6.274;2023-06-24T04:33:16;6.63;;;4.50;;
70505;SDS011;58032;49.820;6.274;2023-06-24T04:35:43;5.90;;;3.78;;
70505;SDS011;58032;49.820;6.274;2023-06-24T04:38:10;8.07;;;4.10;;
70505;SDS011;58032;49.820;6.274;2023-06-24T04:40:38;6.87;;;4.53;;
70505;SDS011;58032;49.820;6.274;2023-06-24T04:43:04;6.07;;;4.25;;
70505;SDS011;58032;49.820;6.274;2023-06-24T04:45:31;6.95;;;4.28;;
70505;SDS011;58032;49.820;6.274;2023-06-24T04:47:58;8.20;;;4.30;;
70505;SDS011;58032;49.820;6.274;2023-06-24T04:50:25;8.15;;;4.18;;
70505;SDS011;58032;49.820;6.274;2023-06-24T04:52:53;7.47;;;4.50;;
70505;SDS011;58032;49.820;6.274;2023-06-24T04:55:23;6.50;;;4.53;;
70505;SDS011;58032;49.820;6.274;2023-06-24T04:57:50;7.05;;;4.43;;
70505;SDS011;58032;49.820;6.274;2023-06-24T05:00:17;7.35;;;4.47;;
70505;SDS011;58032;49.820;6.274;2023-06-24T05:02:44;7.10;;;4.40;;
70505;SDS011;58032;49.820;6.274;2023-06-24T05:05:11;5.80;;;3.63;;
70505;SDS011;58032;49.820;6.274;2023-06-24T05:07:38;7.50;;;3.95;;
70505;SDS011;58032;49.820;6.274;2023-06-24T05:10:06;6.15;;;4.25;;
70505;SDS011;58032;49.820;6.274;2023-06-24T05:12:33;6.47;;;3.95;;
70505;SDS011;58032;49.820;6.274;2023-06-24T05:15:00;5.40;;;3.22;;
70505;SDS011;58032;49.820;6.274;2023-06-24T05:17:26;6.13;;;3.20;;
70505;SDS011;58032;49.820;6.274;2023-06-24T05:19:53;6.07;;;3.65;;
70505;SDS011;58032;49.820;6.274;2023-06-24T05:22:20;6.32;;;3.75;;
70505;SDS011;58032;49.820;6.274;2023-06-24T05:24:47;6.30;;;3.78;;
70505;SDS011;58032;49.820;6.274;2023-06-24T05:27:14;5.10;;;3.47;;
70505;SDS011;58032;49.820;6.274;2023-06-24T05:29:41;6.37;;;3.80;;
70505;SDS011;58032;49.820;6.274;2023-06-24T05:32:08;6.72;;;4.18;;
70505;SDS011;58032;49.820;6.274;2023-06-24T05:34:35;6.90;;;4.30;;
70505;SDS011;58032;49.820;6.274;2023-06-24T05:37:02;6.38;;;3.63;;
70505;SDS011;58032;49.820;6.274;2023-06-24T05:39:29;7.72;;;4.15;;
70505;SDS011;58032;49.820;6.274;2023-06-24T05:41:57;7.20;;;4.93;;
70505;SDS011;58032;49.820;6.274;2023-06-24T05:44:24;5.60;;;4.00;;
70505;SDS011;58032;49.820;6.274;2023-06-24T05:46:51;7.30;;;3.85;;
70505;SDS011;58032;49.820;6.274;2023-06-24T05:49:18;5.78;;;3.78;;
70505;SDS011;58032;49.820;6.274;2023-06-24T05:51:45;6.57;;;4.72;;
70505;SDS011;58032;49.820;6.274;2023-06-24T05:54:12;6.90;;;4.00;;
70505;SDS011;58032;49.820;6.274;2023-06-24T05:56:38;5.95;;;3.92;;
70505;SDS011;58032;49.820;6.274;2023-06-24T05:59:06;6.25;;;4.13;;
70505;SDS011;58032;49.820;6.274;2023-06-24T06:01:33;5.97;;;3.70;;
70505;SDS011;58032;49.820;6.274;2023-06-24T06:04:00;6.47;;;4.22;;
70505;SDS011;58032;49.820;6.274;2023-06-24T06:06:27;7.93;;;4.20;;
70505;SDS011;58032;49.820;6.274;2023-06-24T06:08:54;6.65;;;4.15;;
70505;SDS011;58032;49.820;6.274;2023-06-24T06:11:21;5.60;;;3.97;;
70505;SDS011;58032;49.820;6.274;2023-06-24T06:13:48;8.02;;;4.00;;
70505;SDS011;58032;49.820;6.274;2023-06-24T06:16:14;7.70;;;4.00;;
70505;SDS011;58032;49.820;6.274;2023-06-24T06:18:41;6.77;;;4.13;;
70505;SDS011;58032;49.820;6.274;2023-06-24T06:21:08;5.78;;;3.92;;
70505;SDS011;58032;49.820;6.274;2023-06-24T06:23:35;6.15;;;3.60;;
70505;SDS011;58032;49.820;6.274;2023-06-24T06:26:02;6.75;;;3.95;;
70505;SDS011;58032;49.820;6.274;2023-06-24T06:28:29;10.07;;;4.10;;
70505;SDS011;58032;49.820;6.274;2023-06-24T06:30:56;6.80;;;4.07;;
70505;SDS011;58032;49.820;6.274;2023-06-24T06:33:23;5.28;;;3.50;;
70505;SDS011;58032;49.820;6.274;2023-06-24T06:35:50;9.48;;;3.95;;
70505;SDS011;58032;49.820;6.274;2023-06-24T06:38:17;7.40;;;3.67;;
70505;SDS011;58032;49.820;6.274;2023-06-24T06:40:44;5.90;;;3.75;;
70505;SDS011;58032;49.820;6.274;2023-06-24T06:43:11;7.17;;;4.33;;
70505;SDS011;58032;49.820;6.274;2023-06-24T06:45:38;5.38;;;3.83;;
70505;SDS011;58032;49.820;6.274;2023-06-24T06:48:05;6.45;;;4.20;;
70505;SDS011;58032;49.820;6.274;2023-06-24T06:50:34;6.35;;;4.70;;
70505;SDS011;58032;49.820;6.274;2023-06-24T06:53:01;8.02;;;5.05;;
70505;SDS011;58032;49.820;6.274;2023-06-24T06:55:28;8.17;;;4.80;;
70505;SDS011;58032;49.820;6.274;2023-06-24T06:57:56;8.05;;;4.90;;
70505;SDS011;58032;49.820;6.274;2023-06-24T07:00:22;6.68;;;4.88;;
70505;SDS011;58032;49.820;6.274;2023-06-24T07:02:49;9.75;;;5.25;;
70505;SDS011;58032;49.820;6.274;2023-06-24T07:05:16;6.88;;;5.05;;
70505;SDS011;58032;49.820;6.274;2023-06-24T07:07:43;7.43;;;4.97;;
70505;SDS011;58032;49.820;6.274;2023-06-24T07:10:11;8.57;;;5.13;;
70505;SDS011;58032;49.820;6.274;2023-06-24T07:12:39;7.93;;;5.00;;
70505;SDS011;58032;49.820;6.274;2023-06-24T07:15:06;8.50;;;5.15;;
70505;SDS011;58032;49.820;6.274;2023-06-24T07:17:33;7.85;;;4.90;;
70505;SDS011;58032;49.820;6.274;2023-06-24T07:20:00;7.30;;;4.97;;
70505;SDS011;58032;49.820;6.274;2023-06-24T07:22:27;9.75;;;5.22;;
70505;SDS011;58032;49.820;6.274;2023-06-24T07:24:54;7.18;;;5.10;;
70505;SDS011;58032;49.820;6.274;2023-06-24T07:27:22;6.78;;;4.32;;
70505;SDS011;58032;49.820;6.274;2023-06-24T07:29:50;9.07;;;5.22;;
70505;SDS011;58032;49.820;6.274;2023-06-24T07:32:17;7.10;;;4.93;;
70505;SDS011;58032;49.820;6.274;2023-06-24T07:34:44;7.43;;;5.20;;
70505;SDS011;58032;49.820;6.274;2023-06-24T07:37:11;6.70;;;4.93;;
70505;SDS011;58032;49.820;6.274;2023-06-24T07:39:44;7.43;;;4.63;;
70505;SDS011;58032;49.820;6.274;2023-06-24T07:42:11;7.40;;;5.40;;
70505;SDS011;58032;49.820;6.274;2023-06-24T07:44:38;8.53;;;4.70;;
70505;SDS011;58032;49.820;6.274;2023-06-24T07:47:06;24.98;;;10.65;;
70505;SDS011;58032;49.820;6.274;2023-06-24T07:49:33;37.25;;;17.92;;
70505;SDS011;58032;49.820;6.274;2023-06-24T07:52:00;13.85;;;7.03;;
70505;SDS011;58032;49.820;6.274;2023-06-24T07:54:27;8.98;;;5.10;;
70505;SDS011;58032;49.820;6.274;2023-06-24T07:56:53;11.23;;;6.30;;
70505;SDS011;58032;49.820;6.274;2023-06-24T07:59:20;6.30;;;4.10;;
70505;SDS011;58032;49.820;6.274;2023-06-24T08:01:47;7.63;;;4.40;;
70505;SDS011;58032;49.820;6.274;2023-06-24T08:04:14;8.43;;;4.30;;
70505;SDS011;58032;49.820;6.274;2023-06-24T08:06:42;6.28;;;3.67;;
70505;SDS011;58032;49.820;6.274;2023-06-24T08:09:09;10.67;;;5.80;;
70505;SDS011;58032;49.820;6.274;2023-06-24T08:11:36;10.07;;;4.88;;
70505;SDS011;58032;49.820;6.274;2023-06-24T08:14:04;9.02;;;5.22;;
70505;SDS011;58032;49.820;6.274;2023-06-24T08:16:31;8.55;;;4.38;;
70505;SDS011;58032;49.820;6.274;2023-06-24T08:18:58;6.75;;;4.47;;
70505;SDS011;58032;49.820;6.274;2023-06-24T08:21:25;7.17;;;3.70;;
70505;SDS011;58032;49.820;6.274;2023-06-24T08:23:52;6.93;;;4.28;;
70505;SDS011;58032;49.820;6.274;2023-06-24T08:26:20;8.48;;;4.70;;
70505;SDS011;58032;49.820;6.274;2023-06-24T08:28:47;10.98;;;4.70;;
70505;SDS011;58032;49.820;6.274;2023-06-24T08:31:14;8.05;;;4.50;;
70505;SDS011;58032;49.820;6.274;2023-06-24T08:33:43;7.43;;;4.63;;
70505;SDS011;58032;49.820;6.274;2023-06-24T08:36:11;6.30;;;4.57;;
70505;SDS011;58032;49.820;6.274;2023-06-24T08:38:38;6.45;;;3.72;;
70505;SDS011;58032;49.820;6.274;2023-06-24T08:41:05;7.05;;;4.57;;
70505;SDS011;58032;49.820;6.274;2023-06-24T08:43:32;5.97;;;3.92;;
70505;SDS011;58032;49.820;6.274;2023-06-24T08:45:59;6.30;;;4.10;;
70505;SDS011;58032;49.820;6.274;2023-06-24T08:48:26;6.25;;;3.90;;
70505;SDS011;58032;49.820;6.274;2023-06-24T08:50:56;6.18;;;3.88;;
70505;SDS011;58032;49.820;6.274;2023-06-24T08:53:25;10.32;;;3.70;;
70505;SDS011;58032;49.820;6.274;2023-06-24T08:55:53;5.63;;;3.80;;
70505;SDS011;58032;49.820;6.274;2023-06-24T08:58:20;5.53;;;3.77;;
70505;SDS011;58032;49.820;6.274;2023-06-24T09:00:48;6.43;;;4.05;;
70505;SDS011;58032;49.820;6.274;2023-06-24T09:03:15;7.10;;;4.15;;
70505;SDS011;58032;49.820;6.274;2023-06-24T09:05:42;6.38;;;4.13;;
70505;SDS011;58032;49.820;6.274;2023-06-24T09:08:10;5.47;;;3.63;;
70505;SDS011;58032;49.820;6.274;2023-06-24T09:10:37;6.47;;;4.10;;
70505;SDS011;58032;49.820;6.274;2023-06-24T09:13:05;5.70;;;4.00;;
70505;SDS011;58032;49.820;6.274;2023-06-24T09:15:36;5.32;;;4.13;;
70505;SDS011;58032;49.820;6.274;2023-06-24T09:18:04;5.03;;;3.53;;
70505;SDS011;58032;49.820;6.274;2023-06-24T09:20:32;6.90;;;3.78;;
70505;SDS011;58032;49.820;6.274;2023-06-24T09:23:06;4.93;;;3.30;;
70505;SDS011;58032;49.820;6.274;2023-06-24T09:25:33;6.00;;;3.55;;
70505;SDS011;58032;49.820;6.274;2023-06-24T09:28:00;5.57;;;3.80;;
70505;SDS011;58032;49.820;6.274;2023-06-24T09:30:28;4.82;;;3.35;;
70505;SDS011;58032;49.820;6.274;2023-06-24T09:32:55;5.78;;;3.50;;
70505;SDS011;58032;49.820;6.274;2023-06-24T09:35:23;5.73;;;3.53;;
70505;SDS011;58032;49.820;6.274;2023-06-24T09:37:55;5.65;;;3.55;;
70505;SDS011;58032;49.820;6.274;2023-06-24T09:40:23;4.63;;;3.55;;
70505;SDS011;58032;49.820;6.274;2023-06-24T09:42:57;5.32;;;3.20;;
70505;SDS011;58032;49.820;6.274;2023-06-24T09:45:27;4.82;;;3.38;;
70505;SDS011;58032;49.820;6.274;2023-06-24T09:47:55;6.77;;;3.37;;
70505;SDS011;58032;49.820;6.274;2023-06-24T09:50:24;5.82;;;3.70;;
70505;SDS011;58032;49.820;6.274;2023-06-24T09:52:53;5.65;;;3.33;;
70505;SDS011;58032;49.820;6.274;2023-06-24T09:55:23;7.20;;;3.35;;
70505;SDS011;58032;49.820;6.274;2023-06-24T09:57:52;6.97;;;3.60;;
70505;SDS011;58032;49.820;6.274;2023-06-24T10:00:20;5.07;;;3.40;;
70505;SDS011;58032;49.820;6.274;2023-06-24T10:02:48;6.53;;;3.15;;
70505;SDS011;58032;49.820;6.274;2023-06-24T10:05:15;6.05;;;3.15;;
70505;SDS011;58032;49.820;6.274;2023-06-24T10:07:42;4.80;;;3.08;;
70505;SDS011;58032;49.820;6.274;2023-06-24T10:10:10;5.05;;;2.88;;
70505;SDS011;58032;49.820;6.274;2023-06-24T10:12:37;5.80;;;2.67;;
70505;SDS011;58032;49.820;6.274;2023-06-24T10:15:04;5.68;;;3.03;;
70505;SDS011;58032;49.820;6.274;2023-06-24T10:17:33;4.88;;;2.97;;
70505;SDS011;58032;49.820;6.274;2023-06-24T10:20:03;5.40;;;2.60;;
70505;SDS011;58032;49.820;6.274;2023-06-24T10:22:32;5.80;;;3.20;;
70505;SDS011;58032;49.820;6.274;2023-06-24T10:25:00;6.93;;;2.90;;
70505;SDS011;58032;49.820;6.274;2023-06-24T10:27:28;4.63;;;2.83;;
70505;SDS011;58032;49.820;6.274;2023-06-24T10:30:01;7.07;;;3.17;;
70505;SDS011;58032;49.820;6.274;2023-06-24T10:32:40;6.68;;;2.80;;
70505;SDS011;58032;49.820;6.274;2023-06-24T10:35:21;5.50;;;2.80;;
70505;SDS011;58032;49.820;6.274;2023-06-24T10:37:59;4.60;;;3.00;;
70505;SDS011;58032;49.820;6.274;2023-06-24T10:40:40;5.85;;;3.35;;
70505;SDS011;58032;49.820;6.274;2023-06-24T10:45:56;12.10;;;3.75;;
70505;SDS011;58032;49.820;6.274;2023-06-24T10:48:25;6.72;;;2.90;;
70505;SDS011;58032;49.820;6.274;2023-06-24T10:50:52;6.10;;;3.10;;
70505;SDS011;58032;49.820;6.274;2023-06-24T10:53:19;6.10;;;3.50;;
70505;SDS011;58032;49.820;6.274;2023-06-24T10:55:48;7.07;;;2.90;;
70505;SDS011;58032;49.820;6.274;2023-06-24T10:58:15;5.13;;;2.50;;
70505;SDS011;58032;49.820;6.274;2023-06-24T11:00:42;4.82;;;2.60;;
70505;SDS011;58032;49.820;6.274;2023-06-24T11:03:14;4.90;;;3.07;;
70505;SDS011;58032;49.820;6.274;2023-06-24T11:05:42;5.30;;;2.90;;
70505;SDS011;58032;49.820;6.274;2023-06-24T11:08:11;5.22;;;3.00;;
70505;SDS011;58032;49.820;6.274;2023-06-24T11:10:47;6.07;;;2.90;;
70505;SDS011;58032;49.820;6.274;2023-06-24T11:13:15;5.32;;;2.95;;
70505;SDS011;58032;49.820;6.274;2023-06-24T11:15:42;4.10;;;2.30;;
70505;SDS011;58032;49.820;6.274;2023-06-24T11:18:09;4.40;;;2.50;;
70505;SDS011;58032;49.820;6.274;2023-06-24T11:20:37;4.75;;;3.10;;
70505;SDS011;58032;49.820;6.274;2023-06-24T11:23:08;6.72;;;2.90;;
70505;SDS011;58032;49.820;6.274;2023-06-24T11:25:40;4.30;;;2.20;;
70505;SDS011;58032;49.820;6.274;2023-06-24T11:28:15;4.43;;;2.37;;
70505;SDS011;58032;49.820;6.274;2023-06-24T11:30:45;4.25;;;2.30;;
70505;SDS011;58032;49.820;6.274;2023-06-24T11:33:11;5.05;;;3.00;;
70505;SDS011;58032;49.820;6.274;2023-06-24T11:35:38;4.70;;;2.75;;
70505;SDS011;58032;49.820;6.274;2023-06-24T11:38:05;5.47;;;3.00;;
70505;SDS011;58032;49.820;6.274;2023-06-24T11:40:33;5.43;;;2.73;;
70505;SDS011;58032;49.820;6.274;2023-06-24T11:43:00;5.10;;;2.72;;
70505;SDS011;58032;49.820;6.274;2023-06-24T11:45:27;5.70;;;2.80;;
70505;SDS011;58032;49.820;6.274;2023-06-24T11:48:00;3.72;;;2.58;;
70505;SDS011;58032;49.820;6.274;2023-06-24T11:50:31;5.95;;;3.38;;
70505;SDS011;58032;49.820;6.274;2023-06-24T11:52:58;4.33;;;2.40;;
70505;SDS011;58032;49.820;6.274;2023-06-24T11:55:26;4.65;;;2.60;;
70505;SDS011;58032;49.820;6.274;2023-06-24T11:57:55;4.68;;;2.70;;
70505;SDS011;58032;49.820;6.274;2023-06-24T12:00:28;4.63;;;2.80;;
70505;SDS011;58032;49.820;6.274;2023-06-24T12:02:58;4.60;;;2.60;;
70505;SDS011;58032;49.820;6.274;2023-06-24T12:05:28;4.57;;;2.43;;
70505;SDS011;58032;49.820;6.274;2023-06-24T12:07:57;5.25;;;2.65;;
70505;SDS011;58032;49.820;6.274;2023-06-24T12:10:28;4.85;;;2.72;;
70505;SDS011;58032;49.820;6.274;2023-06-24T12:12:56;4.22;;;2.75;;
70505;SDS011;58032;49.820;6.274;2023-06-24T12:15:24;5.18;;;2.65;;
70505;SDS011;58032;49.820;6.274;2023-06-24T12:17:51;4.43;;;2.63;;
70505;SDS011;58032;49.820;6.274;2023-06-24T12:20:18;4.47;;;2.58;;
70505;SDS011;58032;49.820;6.274;2023-06-24T12:22:45;4.75;;;3.05;;
70505;SDS011;58032;49.820;6.274;2023-06-24T12:25:13;6.07;;;2.67;;
70505;SDS011;58032;49.820;6.274;2023-06-24T12:27:41;5.97;;;2.72;;
70505;SDS011;58032;49.820;6.274;2023-06-24T12:30:09;5.40;;;2.83;;
70505;SDS011;58032;49.820;6.274;2023-06-24T12:32:37;4.93;;;2.13;;
70505;SDS011;58032;49.820;6.274;2023-06-24T12:35:04;5.38;;;2.42;;
70505;SDS011;58032;49.820;6.274;2023-06-24T12:37:32;4.57;;;2.00;;
70505;SDS011;58032;49.820;6.274;2023-06-24T12:39:59;4.22;;;2.25;;
70505;SDS011;58032;49.820;6.274;2023-06-24T12:42:27;3.60;;;2.30;;
70505;SDS011;58032;49.820;6.274;2023-06-24T12:44:54;4.43;;;2.30;;
70505;SDS011;58032;49.820;6.274;2023-06-24T12:47:21;4.65;;;2.42;;
70505;SDS011;58032;49.820;6.274;2023-06-24T12:49:49;4.75;;;2.72;;
70505;SDS011;58032;49.820;6.274;2023-06-24T12:52:16;4.03;;;2.50;;
70505;SDS011;58032;49.820;6.274;2023-06-24T12:54:43;5.33;;;3.03;;
70505;SDS011;58032;49.820;6.274;2023-06-24T12:57:10;4.15;;;2.58;;
70505;SDS011;58032;49.820;6.274;2023-06-24T12:59:39;4.38;;;2.50;;
70505;SDS011;58032;49.820;6.274;2023-06-24T13:02:06;4.07;;;2.45;;
70505;SDS011;58032;49.820;6.274;2023-06-24T13:04:33;5.40;;;2.50;;
70505;SDS011;58032;49.820;6.274;2023-06-24T13:06:59;5.57;;;2.47;;
70505;SDS011;58032;49.820;6.274;2023-06-24T13:09:27;4.40;;;2.67;;
70505;SDS011;58032;49.820;6.274;2023-06-24T13:11:54;4.93;;;3.15;;
70505;SDS011;58032;49.820;6.274;2023-06-24T13:14:21;5.43;;;2.83;;
70505;SDS011;58032;49.820;6.274;2023-06-24T13:16:47;5.78;;;2.55;;
70505;SDS011;58032;49.820;6.274;2023-06-24T13:19:14;3.93;;;2.50;;
70505;SDS011;58032;49.820;6.274;2023-06-24T13:21:42;4.55;;;2.90;;
70505;SDS011;58032;49.820;6.274;2023-06-24T13:24:09;3.95;;;2.58;;
70505;SDS011;58032;49.820;6.274;2023-06-24T13:26:37;4.75;;;2.78;;
70505;SDS011;58032;49.820;6.274;2023-06-24T13:29:04;5.95;;;3.17;;
70505;SDS011;58032;49.820;6.274;2023-06-24T13:31:31;9.13;;;3.30;;
70505;SDS011;58032;49.820;6.274;2023-06-24T13:33:58;4.68;;;2.60;;
70505;SDS011;58032;49.820;6.274;2023-06-24T13:36:31;4.68;;;2.72;;
70505;SDS011;58032;49.820;6.274;2023-06-24T13:39:06;4.53;;;2.60;;
70505;SDS011;58032;49.820;6.274;2023-06-24T13:41:35;4.68;;;2.80;;
70505;SDS011;58032;49.820;6.274;2023-06-24T13:44:02;4.30;;;2.50;;
70505;SDS011;58032;49.820;6.274;2023-06-24T13:46:30;4.35;;;2.63;;
70505;SDS011;58032;49.820;6.274;2023-06-24T13:48:58;6.38;;;2.97;;
70505;SDS011;58032;49.820;6.274;2023-06-24T13:51:26;4.05;;;2.58;;
70505;SDS011;58032;49.820;6.274;2023-06-24T13:53:54;4.35;;;3.00;;
70505;SDS011;58032;49.820;6.274;2023-06-24T13:56:22;6.43;;;2.77;;
70505;SDS011;58032;49.820;6.274;2023-06-24T13:58:50;5.22;;;3.03;;
70505;SDS011;58032;49.820;6.274;2023-06-24T14:01:18;4.68;;;3.17;;
70505;SDS011;58032;49.820;6.274;2023-06-24T14:03:46;4.53;;;2.83;;
70505;SDS011;58032;49.820;6.274;2023-06-24T14:06:14;5.88;;;3.30;;
70505;SDS011;58032;49.820;6.274;2023-06-24T14:08:42;5.20;;;2.83;;
70505;SDS011;58032;49.820;6.274;2023-06-24T14:11:10;5.75;;;2.92;;
70505;SDS011;58032;49.820;6.274;2023-06-24T14:13:37;7.28;;;2.47;;
70505;SDS011;58032;49.820;6.274;2023-06-24T14:16:04;5.13;;;2.88;;
70505;SDS011;58032;49.820;6.274;2023-06-24T14:18:31;5.97;;;3.20;;
70505;SDS011;58032;49.820;6.274;2023-06-24T14:20:59;4.30;;;2.97;;
70505;SDS011;58032;49.820;6.274;2023-06-24T14:23:27;5.57;;;2.70;;
70505;SDS011;58032;49.820;6.274;2023-06-24T14:25:54;3.97;;;2.78;;
70505;SDS011;58032;49.820;6.274;2023-06-24T14:28:21;5.75;;;3.20;;
70505;SDS011;58032;49.820;6.274;2023-06-24T14:30:49;5.03;;;3.10;;
70505;SDS011;58032;49.820;6.274;2023-06-24T14:33:16;4.30;;;2.83;;
70505;SDS011;58032;49.820;6.274;2023-06-24T14:35:43;8.10;;;2.88;;
70505;SDS011;58032;49.820;6.274;2023-06-24T14:38:10;5.13;;;2.75;;
70505;SDS011;58032;49.820;6.274;2023-06-24T14:40:37;4.20;;;3.03;;
70505;SDS011;58032;49.820;6.274;2023-06-24T14:43:04;5.82;;;3.20;;
70505;SDS011;58032;49.820;6.274;2023-06-24T14:45:30;4.23;;;2.83;;
70505;SDS011;58032;49.820;6.274;2023-06-24T14:47:58;7.22;;;2.60;;
70505;SDS011;58032;49.820;6.274;2023-06-24T14:50:24;4.63;;;3.28;;
70505;SDS011;58032;49.820;6.274;2023-06-24T14:52:51;4.05;;;2.67;;
70505;SDS011;58032;49.820;6.274;2023-06-24T14:55:18;4.47;;;3.17;;
70505;SDS011;58032;49.820;6.274;2023-06-24T14:57:46;5.17;;;3.30;;
70505;SDS011;58032;49.820;6.274;2023-06-24T15:00:13;4.53;;;2.50;;
70505;SDS011;58032;49.820;6.274;2023-06-24T15:02:40;4.30;;;2.67;;
70505;SDS011;58032;49.820;6.274;2023-06-24T15:05:07;4.75;;;3.17;;
70505;SDS011;58032;49.820;6.274;2023-06-24T15:07:34;5.53;;;3.40;;